^^

Nearby METAR Reports

 

EGHH - Bournemouth Airp, United Kingdom
Distance from station: S 10mi, 17km
Updated: 20/08/2019 21:50
Clear
Clear
 Wind from W
Wind: W 1 mph , 2 km/h
Temperature: 14°C
Dew Point: 11°C
Humidity: 82%
Barometer: 1027 hPa
Summary: Clear
Visibility: greater than 7 miles , 10 km
2019/08/20 20:50 EGHH 202050Z 28001KT CAVOK 14/11 Q1027
EGDM - Boscombe Down, United Kingdom
Distance from station: N 16mi, 26km
Updated: 20/08/2019 21:50
Clear
Clear
 Wind from SW
Wind: SW 3 mph , 6 km/h
Temperature: 14°C
Dew Point: 9°C
Humidity: 72%
Barometer: 1027 hPa
Clouds: Clear
Visibility: 6 miles , 10 km
2019/08/20 20:50 EGDM 202050Z AUTO 23003KT 9999 NCD 14/09 Q1027
 
EGVP - Middle Wallop, United Kingdom
Distance from station: NE 17mi, 27km
Updated: 20/08/2019 21:50
Clear
Clear
 Wind from WSW
Wind: WSW 2 mph , 4 km/h
Temperature: 14°C
Dew Point: 8°C
Humidity: 67%
Barometer: 1026 hPa
Summary: Clear
Visibility: greater than 7 miles , 10 km
2019/08/20 20:50 EGVP 202050Z 24002KT CAVOK 14/08 Q1026 NOSIG RMK BLU BLU
EGHI - Southampton Wx C, United Kingdom
Distance from station: E 19mi, 31km
Updated: 20/08/2019 21:50
Clear
Clear
 Wind from calm
Wind: Calm
Temperature: 15°C
Dew Point: 11°C
Humidity: 77%
Barometer: 1027 hPa
Summary: Clear
Visibility: greater than 7 miles , 10 km
2019/08/20 20:50 EGHI 202050Z 00000KT CAVOK 15/11 Q1027
 
EGDY - Yeovilton (navy), United Kingdom
Distance from station: W 36mi, 58km
Updated: 20/08/2019 21:50
Few Clouds
Few Clouds
 Wind from SW
Wind: SW 5 mph , 7 km/h
Temperature: 14°C
Dew Point: 11°C
Humidity: 82%
Barometer: 1027 hPa
Clouds: Few Clouds
Visibility: 6 miles , 10 km
Cloud details: Few Clouds 1341 m
2019/08/20 20:50 EGDY 202050Z AUTO 22004KT 9999 FEW044/// 14/11 Q1027
EGUO - Colerne Raf, United Kingdom
Distance from station: NNW 41mi, 66km
Updated: 14/02/2019 22:50
NOT Current
Clear
Clear
 Wind from ENE
Wind: ENE 1 mph , 2 km/h
Temperature: 1°C
Dew Point: 0°C
Humidity: 93%
Barometer: 1029 hPa
Summary: Clear
Visibility: greater than 7 miles , 10 km
2019/02/14 22:50 EGUO 142250Z 06001KT CAVOK 01/00 Q1029 BLU NOSIG
 
EGVO - Odiham Raf, United Kingdom
Distance from station: ENE 42mi, 68km
Updated: 20/08/2019 21:50
Clear
Clear
 Wind from SSW
Wind: SSW 5 mph , 7 km/h
Temperature: 13°C
Dew Point: 7°C
Humidity: 67%
Barometer: 1026 hPa
Summary: Clear
Visibility: greater than 7 miles , 10 km
2019/08/20 20:50 EGVO 202050Z 21004KT CAVOK 13/07 Q1026 NOSIG RMK BLU BLU
EGGD - Bristol/Lulsgate, United Kingdom
Distance from station: NW 50mi, 81km
Updated: 20/08/2019 21:50
Few Clouds
Few Clouds
 Wind from WSW
Wind: WSW 8 mph , 13 km/h
Temperature: 14°C
Dew Point: 11°C
Humidity: 82%
Barometer: 1026 hPa
Clouds: Few Clouds
Visibility: 6 miles , 10 km
Cloud details: Few Clouds 610 m
2019/08/20 20:50 EGGD 202050Z AUTO 24007KT 9999 FEW020 14/11 Q1026